createdAt,value
2023-05-12T00:01:01.865Z,2.60
2023-05-12T00:03:29.995Z,2.40
2023-05-12T00:06:03.652Z,2.30
2023-05-12T00:08:32.243Z,2.40
2023-05-12T00:11:01.820Z,2.10
2023-05-12T00:13:30.549Z,2.40
2023-05-12T00:15:59.459Z,2.60
2023-05-12T00:18:28.832Z,2.30
2023-05-12T00:20:57.115Z,2.40
2023-05-12T00:23:25.263Z,2.40
2023-05-12T00:25:53.724Z,2.50
2023-05-12T00:28:21.595Z,2.50
2023-05-12T00:30:49.505Z,2.20
2023-05-12T00:33:17.445Z,2.30
2023-05-12T00:35:45.852Z,2.40
2023-05-12T00:38:14.626Z,2.50
2023-05-12T00:40:42.754Z,2.40
2023-05-12T00:43:11.688Z,2.60
2023-05-12T00:45:39.990Z,2.60
2023-05-12T00:48:08.307Z,2.80
2023-05-12T00:50:37.637Z,2.70
2023-05-12T00:53:07.153Z,2.90
2023-05-12T00:55:36.550Z,3.00
2023-05-12T00:58:05.854Z,2.80
2023-05-12T01:00:34.944Z,2.80
2023-05-12T01:03:04.309Z,2.70
2023-05-12T01:05:42.910Z,2.60
2023-05-12T01:08:13.177Z,3.00
2023-05-12T01:10:45.228Z,2.90
2023-05-12T01:13:14.966Z,2.80
2023-05-12T01:15:48.058Z,2.80
2023-05-12T01:18:20.493Z,2.60
2023-05-12T01:20:51.478Z,2.70
2023-05-12T01:23:20.878Z,2.60
2023-05-12T01:25:51.342Z,2.90
2023-05-12T01:28:21.754Z,2.80
2023-05-12T01:30:51.163Z,3.00
2023-05-12T01:33:19.408Z,3.00
2023-05-12T01:35:48.522Z,3.10
2023-05-12T01:38:17.740Z,2.90
2023-05-12T01:40:46.519Z,2.80
2023-05-12T01:43:14.565Z,2.60
2023-05-12T01:45:42.483Z,2.60
2023-05-12T01:48:10.892Z,2.70
2023-05-12T01:50:39.196Z,2.80
2023-05-12T01:53:12.518Z,2.80
2023-05-12T01:55:41.076Z,2.90
2023-05-12T01:58:09.965Z,3.00
2023-05-12T02:00:38.060Z,3.00
2023-05-12T02:03:07.808Z,2.60
2023-05-12T02:05:35.810Z,3.10
2023-05-12T02:08:05.427Z,2.90
2023-05-12T02:10:33.906Z,2.70
2023-05-12T02:13:02.481Z,2.70
2023-05-12T02:15:31.066Z,2.80
2023-05-12T02:17:59.508Z,3.10
2023-05-12T02:20:29.804Z,2.70
2023-05-12T02:22:58.673Z,2.90
2023-05-12T02:25:27.561Z,2.60
2023-05-12T02:27:55.626Z,2.90
2023-05-12T02:30:24.934Z,2.90
2023-05-12T02:32:53.639Z,2.80
2023-05-12T02:35:21.894Z,2.90
2023-05-12T02:37:49.957Z,2.80
2023-05-12T02:40:18.400Z,3.00
2023-05-12T02:42:46.679Z,2.70
2023-05-12T02:45:15.487Z,2.90
2023-05-12T02:47:43.557Z,2.90
2023-05-12T02:50:12.170Z,2.70
2023-05-12T02:52:40.961Z,2.90
2023-05-12T02:55:09.963Z,2.60
2023-05-12T02:57:38.612Z,2.80
2023-05-12T03:00:08.057Z,3.10
2023-05-12T03:02:39.921Z,2.80
2023-05-12T03:05:09.594Z,3.10
2023-05-12T03:07:38.095Z,3.10
2023-05-12T03:10:07.933Z,2.90
2023-05-12T03:12:37.141Z,3.30
2023-05-12T03:15:07.333Z,3.40
2023-05-12T03:17:36.826Z,3.20
2023-05-12T03:20:06.887Z,3.20
2023-05-12T03:22:35.437Z,3.10
2023-05-12T03:25:05.448Z,2.90
2023-05-12T03:27:33.836Z,3.40
2023-05-12T03:30:05.326Z,3.60
2023-05-12T03:32:35.504Z,2.80
2023-05-12T03:35:03.742Z,3.10
2023-05-12T03:37:31.656Z,2.70
2023-05-12T03:39:59.817Z,2.90
2023-05-12T03:42:28.622Z,3.30
2023-05-12T03:44:56.707Z,2.80
2023-05-12T03:47:26.535Z,2.90
2023-05-12T03:49:56.464Z,2.90
2023-05-12T03:52:25.166Z,3.00
2023-05-12T03:54:53.262Z,2.80
2023-05-12T03:57:21.544Z,2.80
2023-05-12T03:59:49.557Z,2.80
2023-05-12T04:02:18.279Z,2.60
2023-05-12T04:04:46.575Z,2.60
2023-05-12T04:07:16.071Z,2.80
2023-05-12T04:09:47.201Z,2.60
2023-05-12T04:12:15.212Z,2.60
2023-05-12T04:14:43.625Z,2.70
2023-05-12T04:17:11.803Z,2.70
2023-05-12T04:19:39.915Z,3.00
2023-05-12T04:22:07.989Z,2.80
2023-05-12T04:24:39.000Z,3.10
2023-05-12T04:27:07.334Z,2.80
2023-05-12T04:29:36.524Z,2.70
2023-05-12T04:32:05.812Z,2.80
2023-05-12T04:34:34.013Z,2.80
2023-05-12T04:37:03.330Z,2.80
2023-05-12T04:39:32.201Z,2.80
2023-05-12T04:42:04.748Z,2.70
2023-05-12T04:44:34.995Z,2.70
2023-05-12T04:47:03.059Z,3.40
2023-05-12T04:49:31.845Z,3.50
2023-05-12T04:51:59.848Z,4.20
2023-05-12T04:54:28.098Z,4.60
2023-05-12T04:56:57.240Z,6.40
2023-05-12T04:59:25.705Z,6.50
2023-05-12T05:01:56.915Z,5.90
2023-05-12T05:04:26.462Z,5.10
2023-05-12T05:06:56.342Z,6.10
2023-05-12T05:09:25.020Z,5.70
2023-05-12T05:11:54.247Z,5.90
2023-05-12T05:14:26.443Z,5.80
2023-05-12T05:16:55.189Z,5.60
2023-05-12T05:19:35.351Z,5.60
2023-05-12T05:22:12.751Z,5.10
2023-05-12T05:24:40.905Z,4.80
2023-05-12T05:27:09.179Z,5.00
2023-05-12T05:29:37.275Z,5.40
2023-05-12T05:32:06.266Z,5.00
2023-05-12T05:34:34.390Z,4.70
2023-05-12T05:37:02.638Z,5.00
2023-05-12T05:39:31.766Z,5.30
2023-05-12T05:41:59.723Z,4.60
2023-05-12T05:44:28.197Z,4.70
2023-05-12T05:46:57.200Z,4.40
2023-05-12T05:49:26.964Z,4.90
2023-05-12T05:51:56.246Z,4.70
2023-05-12T05:54:25.861Z,4.70
2023-05-12T05:56:54.155Z,4.90
2023-05-12T05:59:22.404Z,4.70
2023-05-12T06:01:50.347Z,4.60
2023-05-12T06:04:18.330Z,4.30
2023-05-12T06:06:48.151Z,4.30
2023-05-12T06:09:16.841Z,4.20
2023-05-12T06:11:44.914Z,4.30
2023-05-12T06:14:12.983Z,3.90
2023-05-12T06:16:41.100Z,4.20
2023-05-12T06:19:09.813Z,4.00
2023-05-12T06:21:38.950Z,4.00
2023-05-12T06:24:07.109Z,4.10
2023-05-12T06:26:36.824Z,3.90
2023-05-12T06:29:08.327Z,3.60
2023-05-12T06:31:36.630Z,3.70
2023-05-12T06:34:04.684Z,3.90
2023-05-12T06:36:33.616Z,3.40
2023-05-12T06:39:02.100Z,3.60
2023-05-12T06:41:30.581Z,3.60
2023-05-12T06:44:00.495Z,3.80
2023-05-12T06:46:29.245Z,3.60
2023-05-12T06:48:57.342Z,3.70
2023-05-12T06:51:26.046Z,3.60
2023-05-12T06:53:53.915Z,3.40
2023-05-12T06:56:23.405Z,3.40
2023-05-12T06:58:54.650Z,3.50
2023-05-12T07:01:22.918Z,3.40
2023-05-12T07:03:51.780Z,3.10
2023-05-12T07:06:19.853Z,3.40
2023-05-12T07:08:49.022Z,3.40
2023-05-12T07:11:20.274Z,3.30
2023-05-12T07:13:49.336Z,3.00
2023-05-12T07:16:19.145Z,3.50
2023-05-12T07:18:47.249Z,3.10
2023-05-12T07:21:15.835Z,3.30
2023-05-12T07:23:43.851Z,3.00
2023-05-12T07:26:11.875Z,3.60
2023-05-12T07:28:39.920Z,3.40
2023-05-12T07:31:08.895Z,3.20
2023-05-12T07:33:37.534Z,3.50
2023-05-12T07:36:06.067Z,3.20
2023-05-12T07:38:34.361Z,3.40
2023-05-12T07:41:02.330Z,3.00
2023-05-12T07:43:30.551Z,3.10
2023-05-12T07:46:01.165Z,2.90
2023-05-12T07:48:30.022Z,3.10
2023-05-12T07:50:58.375Z,3.10
2023-05-12T07:53:26.286Z,2.70
2023-05-12T07:55:54.645Z,2.90
2023-05-12T07:58:22.834Z,2.70
2023-05-12T08:00:51.227Z,2.90
2023-05-12T08:03:19.434Z,2.90
2023-05-12T08:05:47.769Z,3.00
2023-05-12T08:08:16.961Z,2.50
2023-05-12T08:10:45.134Z,2.90
2023-05-12T08:13:13.183Z,2.70
2023-05-12T08:15:41.481Z,2.90
2023-05-12T08:18:09.593Z,2.50
2023-05-12T08:20:37.832Z,2.50
2023-05-12T08:23:05.933Z,2.50
2023-05-12T08:25:36.325Z,2.80
2023-05-12T08:28:04.858Z,2.30
2023-05-12T08:30:33.111Z,2.40
2023-05-12T08:33:01.892Z,2.30
2023-05-12T08:35:30.352Z,2.20
2023-05-12T08:37:59.453Z,2.70
2023-05-12T08:40:32.056Z,2.30
2023-05-12T08:43:11.207Z,2.50
2023-05-12T08:45:41.591Z,2.30
2023-05-12T08:48:11.499Z,2.40
2023-05-12T08:50:42.983Z,2.10
2023-05-12T08:53:13.767Z,2.30
2023-05-12T08:55:54.184Z,2.30
2023-05-12T08:58:40.821Z,2.20
2023-05-12T09:01:12.769Z,2.20
2023-05-12T09:03:41.221Z,2.30
2023-05-12T09:06:11.731Z,2.40
2023-05-12T09:08:41.262Z,2.00
2023-05-12T09:11:13.613Z,2.10
2023-05-12T09:14:01.096Z,1.80
2023-05-12T09:16:34.383Z,2.00
2023-05-12T09:19:04.596Z,2.10
2023-05-12T09:21:34.371Z,2.10
2023-05-12T09:24:07.566Z,2.00
2023-05-12T09:26:52.363Z,2.00
2023-05-12T09:29:31.226Z,2.00
2023-05-12T09:32:04.267Z,2.10
2023-05-12T09:34:37.219Z,2.00
2023-05-12T09:37:07.847Z,2.00
2023-05-12T09:39:36.976Z,1.70
2023-05-12T09:42:12.772Z,2.00
2023-05-12T09:44:41.491Z,2.30
2023-05-12T09:47:10.876Z,2.00
2023-05-12T09:49:46.154Z,1.90
2023-05-12T09:52:14.318Z,1.90
2023-05-12T09:54:42.489Z,2.00
2023-05-12T09:57:15.703Z,1.90
2023-05-12T09:59:44.845Z,1.60
2023-05-12T10:02:16.550Z,1.80
2023-05-12T10:04:53.017Z,1.90
2023-05-12T10:07:26.225Z,1.80
2023-05-12T10:10:01.696Z,1.90
2023-05-12T10:12:30.740Z,2.00
2023-05-12T10:15:01.184Z,1.80
2023-05-12T10:17:32.174Z,2.00
2023-05-12T10:20:03.416Z,2.20
2023-05-12T10:22:39.619Z,2.00
2023-05-12T10:25:09.688Z,2.00
2023-05-12T10:27:38.121Z,2.00
2023-05-12T10:30:08.660Z,2.10
2023-05-12T10:32:37.764Z,1.90
2023-05-12T10:35:13.209Z,2.10
2023-05-12T10:37:43.616Z,1.90
2023-05-12T10:40:11.803Z,1.70
2023-05-12T10:42:43.414Z,1.80
2023-05-12T10:45:20.526Z,1.90
2023-05-12T10:47:48.938Z,1.80
2023-05-12T10:50:28.490Z,1.90
2023-05-12T10:52:57.455Z,1.70
2023-05-12T10:55:45.654Z,1.60
2023-05-12T10:58:14.660Z,1.90
2023-05-12T11:00:55.931Z,1.60
2023-05-12T11:03:26.153Z,1.70
2023-05-12T11:06:07.372Z,1.70
2023-05-12T11:08:38.011Z,1.90
2023-05-12T11:11:06.478Z,1.90
2023-05-12T11:13:35.894Z,2.00
2023-05-12T11:16:04.510Z,1.70
2023-05-12T11:18:32.761Z,1.70
2023-05-12T11:21:12.080Z,1.70
2023-05-12T11:23:40.143Z,1.60
2023-05-12T11:26:18.712Z,1.70
2023-05-12T11:28:47.477Z,1.60
2023-05-12T11:31:23.037Z,1.50
2023-05-12T11:34:12.037Z,1.70
2023-05-12T11:36:44.540Z,1.60
2023-05-12T11:39:25.414Z,1.80
2023-05-12T11:42:05.432Z,1.60
2023-05-12T11:44:49.284Z,1.90
2023-05-12T11:47:20.252Z,1.50
2023-05-12T11:49:55.931Z,2.00
2023-05-12T11:52:25.484Z,1.50
2023-05-12T11:55:00.976Z,1.50
2023-05-12T11:57:36.202Z,1.50
2023-05-12T12:00:08.080Z,1.50
2023-05-12T12:02:38.836Z,1.40
2023-05-12T12:05:18.842Z,1.50
2023-05-12T12:07:47.517Z,1.50
2023-05-12T12:10:18.625Z,1.40
2023-05-12T12:12:46.816Z,1.60
2023-05-12T12:15:14.709Z,1.60
2023-05-12T12:17:42.756Z,1.40
2023-05-12T12:20:11.831Z,1.20
2023-05-12T12:22:40.470Z,1.50
2023-05-12T12:25:09.777Z,1.50
2023-05-12T12:27:37.663Z,1.50
2023-05-12T12:30:06.920Z,1.50
2023-05-12T12:32:35.014Z,1.40
2023-05-12T12:35:06.675Z,1.50
2023-05-12T12:37:34.875Z,1.30
2023-05-12T12:40:09.310Z,1.60
2023-05-12T12:42:40.740Z,1.50
2023-05-12T12:45:10.128Z,1.50
2023-05-12T12:47:39.171Z,1.50
2023-05-12T12:50:10.071Z,1.50
2023-05-12T12:52:38.819Z,1.50
2023-05-12T12:55:08.224Z,1.40
2023-05-12T12:57:36.500Z,1.50
2023-05-12T13:00:05.819Z,1.70
2023-05-12T13:02:34.721Z,1.50
2023-05-12T13:05:04.507Z,1.60
2023-05-12T13:07:33.604Z,1.40
2023-05-12T13:10:01.640Z,1.30
2023-05-12T13:12:31.514Z,1.40
2023-05-12T13:15:00.506Z,1.60
2023-05-12T13:17:29.392Z,1.40
2023-05-12T13:19:59.291Z,1.60
2023-05-12T13:22:30.393Z,1.50
2023-05-12T13:24:58.397Z,1.50
2023-05-12T13:27:26.472Z,1.50
2023-05-12T13:29:54.441Z,1.40
2023-05-12T13:32:22.314Z,1.60
2023-05-12T13:34:50.994Z,1.40
2023-05-12T13:37:19.267Z,1.30
2023-05-12T13:39:47.157Z,1.40
2023-05-12T13:42:15.220Z,1.40
2023-05-12T13:44:43.613Z,1.40
2023-05-12T13:47:11.976Z,1.60
2023-05-12T13:49:40.344Z,1.50
2023-05-12T13:52:08.620Z,1.30
2023-05-12T13:54:36.893Z,1.50
2023-05-12T13:57:06.698Z,1.20
2023-05-12T13:59:35.088Z,1.40
2023-05-12T14:02:03.197Z,1.40
2023-05-12T14:04:31.598Z,1.40
2023-05-12T14:06:59.616Z,1.60
2023-05-12T14:09:28.503Z,1.20
2023-05-12T14:11:58.274Z,1.50
2023-05-12T14:14:26.705Z,1.40
2023-05-12T14:16:55.008Z,1.40
2023-05-12T14:19:23.663Z,1.50
2023-05-12T14:21:51.940Z,1.60
2023-05-12T14:24:20.316Z,1.50
2023-05-12T14:26:49.038Z,1.40
2023-05-12T14:29:17.382Z,1.30
2023-05-12T14:31:46.096Z,1.50
2023-05-12T14:34:15.166Z,1.60
2023-05-12T14:36:43.554Z,1.50
2023-05-12T14:39:11.823Z,1.30
2023-05-12T14:41:40.403Z,1.30
2023-05-12T14:44:08.784Z,1.50
2023-05-12T14:46:37.680Z,1.40
2023-05-12T14:49:11.277Z,1.50
2023-05-12T14:51:40.782Z,1.30
2023-05-12T14:54:21.914Z,1.30
2023-05-12T14:56:53.137Z,1.30
2023-05-12T14:59:21.186Z,1.40
2023-05-12T15:01:49.324Z,1.30
2023-05-12T15:04:17.542Z,1.30
2023-05-12T15:06:45.554Z,1.20
2023-05-12T15:09:13.985Z,1.40
2023-05-12T15:11:45.529Z,1.50
2023-05-12T15:14:14.332Z,1.30
2023-05-12T15:16:43.243Z,1.40
2023-05-12T15:19:11.670Z,1.40
2023-05-12T15:21:39.769Z,1.20
2023-05-12T15:24:08.245Z,1.10
2023-05-12T15:26:40.077Z,1.40
2023-05-12T15:29:08.546Z,1.30
2023-05-12T15:31:36.529Z,1.40
2023-05-12T15:34:05.016Z,1.30
2023-05-12T15:36:32.986Z,1.60
2023-05-12T15:39:01.114Z,1.50
2023-05-12T15:41:29.401Z,1.40
2023-05-12T15:43:57.693Z,1.20
2023-05-12T15:46:25.876Z,1.40
2023-05-12T15:48:55.010Z,1.30
2023-05-12T15:51:23.086Z,1.30
2023-05-12T15:53:51.793Z,1.40
2023-05-12T15:56:20.161Z,1.30
2023-05-12T15:58:48.322Z,1.30
2023-05-12T16:01:16.288Z,1.20
2023-05-12T16:03:44.669Z,1.40
2023-05-12T16:06:13.462Z,1.30
2023-05-12T16:08:41.432Z,1.40
2023-05-12T16:11:09.437Z,1.20
2023-05-12T16:13:37.879Z,1.40
2023-05-12T16:16:07.004Z,1.30
2023-05-12T16:18:35.219Z,1.30
2023-05-12T16:21:03.751Z,1.30
2023-05-12T16:23:31.918Z,1.30
2023-05-12T16:26:00.359Z,1.30
2023-05-12T16:28:28.892Z,1.30
2023-05-12T16:30:57.149Z,1.90
2023-05-12T16:33:26.783Z,1.80
2023-05-12T16:35:54.935Z,1.80
2023-05-12T16:38:23.202Z,2.10
2023-05-12T16:40:51.274Z,2.50
2023-05-12T16:43:19.268Z,3.00
2023-05-12T16:45:47.607Z,3.20
2023-05-12T16:48:15.678Z,3.10
2023-05-12T16:50:43.565Z,3.00
2023-05-12T16:53:11.844Z,3.20
2023-05-12T16:55:39.816Z,2.70
2023-05-12T16:58:07.770Z,3.10
2023-05-12T17:00:36.370Z,3.10
2023-05-12T17:03:04.920Z,3.50
2023-05-12T17:05:33.943Z,3.50
2023-05-12T17:08:02.119Z,3.60
2023-05-12T17:10:30.604Z,3.60
2023-05-12T17:12:58.871Z,4.00
2023-05-12T17:15:27.449Z,3.70
2023-05-12T17:17:55.590Z,4.00
2023-05-12T17:20:24.111Z,3.70
2023-05-12T17:22:52.560Z,3.90
2023-05-12T17:25:22.287Z,4.50
2023-05-12T17:27:50.785Z,4.20
2023-05-12T17:30:18.902Z,4.20
2023-05-12T17:32:47.386Z,4.40
2023-05-12T17:35:15.472Z,4.20
2023-05-12T17:37:43.564Z,4.60
2023-05-12T17:40:18.032Z,4.90
2023-05-12T17:42:46.190Z,3.80
2023-05-12T17:45:14.924Z,4.60
2023-05-12T17:47:44.698Z,4.50
2023-05-12T17:50:15.071Z,4.60
2023-05-12T17:52:44.201Z,4.10
2023-05-12T17:55:12.823Z,4.80
2023-05-12T17:57:41.065Z,4.70
2023-05-12T18:00:10.677Z,4.50
2023-05-12T18:02:45.396Z,4.70
2023-05-12T18:05:13.696Z,4.40
2023-05-12T18:07:41.852Z,4.90
2023-05-12T18:10:11.561Z,4.40
2023-05-12T18:12:40.187Z,4.80
2023-05-12T18:15:09.755Z,4.50
2023-05-12T18:17:38.024Z,4.70
2023-05-12T18:20:08.151Z,4.70
2023-05-12T18:22:37.002Z,4.60
2023-05-12T18:25:06.075Z,4.60
2023-05-12T18:27:34.211Z,4.90
2023-05-12T18:30:02.903Z,4.50
2023-05-12T18:32:33.020Z,4.70
2023-05-12T18:35:01.546Z,4.50
2023-05-12T18:37:31.764Z,4.40
2023-05-12T18:39:59.996Z,4.50
2023-05-12T18:42:30.587Z,4.40
2023-05-12T18:45:00.028Z,4.80
2023-05-12T18:47:28.338Z,4.60
2023-05-12T18:49:56.491Z,5.20
2023-05-12T18:52:24.420Z,5.10
2023-05-12T18:54:52.310Z,4.90
2023-05-12T18:57:20.496Z,5.30
2023-05-12T18:59:48.490Z,5.10
2023-05-12T19:02:17.648Z,5.70
2023-05-12T19:04:46.596Z,6.20
2023-05-12T19:07:15.956Z,6.40
2023-05-12T19:09:44.382Z,6.70
2023-05-12T19:12:12.542Z,6.40
2023-05-12T19:14:40.995Z,5.70
2023-05-12T19:17:09.229Z,6.70
2023-05-12T19:19:37.183Z,6.80
2023-05-12T19:22:05.549Z,7.30
2023-05-12T19:24:34.533Z,6.30
2023-05-12T19:27:02.370Z,6.80
2023-05-12T19:29:30.659Z,6.40
2023-05-12T19:31:58.926Z,5.10
2023-05-12T19:34:29.771Z,4.80
2023-05-12T19:37:01.132Z,4.90
2023-05-12T19:39:29.392Z,4.30
2023-05-12T19:41:57.877Z,5.20
2023-05-12T19:44:25.886Z,5.60
2023-05-12T19:46:55.251Z,5.60
2023-05-12T19:49:23.519Z,6.00
2023-05-12T19:51:52.073Z,5.40
2023-05-12T19:54:19.985Z,4.90
2023-05-12T19:56:47.947Z,5.30
2023-05-12T19:59:15.916Z,5.10
2023-05-12T20:01:43.864Z,5.00
2023-05-12T20:04:12.569Z,5.50
2023-05-12T20:06:42.312Z,4.80
2023-05-12T20:09:10.904Z,5.50
2023-05-12T20:11:38.935Z,5.10
2023-05-12T20:14:07.034Z,5.60
2023-05-12T20:16:35.110Z,4.60
2023-05-12T20:19:03.302Z,5.50
2023-05-12T20:21:31.676Z,5.40
2023-05-12T20:23:59.725Z,5.30
2023-05-12T20:26:28.913Z,5.60
2023-05-12T20:28:57.087Z,5.00
2023-05-12T20:31:25.862Z,5.00
2023-05-12T20:33:58.032Z,4.90
2023-05-12T20:36:25.946Z,5.90
2023-05-12T20:38:54.076Z,5.90
2023-05-12T20:41:22.150Z,5.80
2023-05-12T20:43:50.888Z,5.40
2023-05-12T20:46:19.381Z,5.60
2023-05-12T20:48:47.450Z,5.70
2023-05-12T20:51:15.894Z,5.30
2023-05-12T20:53:43.940Z,5.10
2023-05-12T20:56:13.122Z,5.60
2023-05-12T20:58:41.722Z,5.40
2023-05-12T21:01:09.587Z,5.20
2023-05-12T21:03:38.070Z,5.50
2023-05-12T21:06:06.659Z,4.90
2023-05-12T21:08:35.770Z,5.20
2023-05-12T21:11:04.242Z,5.30
2023-05-12T21:13:32.198Z,5.10
2023-05-12T21:16:00.323Z,5.10
2023-05-12T21:18:28.474Z,4.80
2023-05-12T21:20:56.730Z,4.40
2023-05-12T21:23:24.695Z,5.30
2023-05-12T21:25:53.791Z,4.80
2023-05-12T21:28:22.383Z,4.90
2023-05-12T21:30:50.332Z,4.90
2023-05-12T21:33:18.411Z,4.80
2023-05-12T21:35:46.590Z,4.90
2023-05-12T21:38:14.466Z,5.00
2023-05-12T21:40:42.533Z,4.90
2023-05-12T21:43:10.598Z,5.30
2023-05-12T21:45:38.672Z,5.40
2023-05-12T21:48:06.888Z,5.30
2023-05-12T21:50:35.328Z,5.10
2023-05-12T21:53:03.603Z,5.20
2023-05-12T21:55:31.496Z,4.60
2023-05-12T21:57:59.960Z,5.20
2023-05-12T22:00:28.127Z,4.50
2023-05-12T22:02:56.275Z,5.00
2023-05-12T22:05:24.478Z,4.80
2023-05-12T22:07:52.358Z,4.80
2023-05-12T22:10:21.293Z,5.00
2023-05-12T22:12:49.522Z,5.50
2023-05-12T22:15:18.334Z,5.40
2023-05-12T22:17:46.728Z,5.10
2023-05-12T22:20:15.071Z,4.90
2023-05-12T22:22:43.330Z,5.10
2023-05-12T22:25:11.512Z,4.70
2023-05-12T22:27:39.490Z,4.70
2023-05-12T22:30:10.228Z,4.50
2023-05-12T22:32:38.249Z,4.40
2023-05-12T22:35:07.795Z,4.30
2023-05-12T22:37:36.205Z,4.90
2023-05-12T22:40:05.549Z,4.60
2023-05-12T22:42:33.550Z,4.20
2023-05-12T22:45:04.847Z,4.60
2023-05-12T22:47:33.119Z,4.30
2023-05-12T22:50:01.263Z,4.40
2023-05-12T22:52:29.232Z,4.40
2023-05-12T22:54:57.317Z,4.40
2023-05-12T22:57:25.939Z,4.30
2023-05-12T22:59:54.124Z,4.40
2023-05-12T23:02:22.356Z,4.20
2023-05-12T23:04:50.412Z,4.30
2023-05-12T23:07:18.403Z,4.50
2023-05-12T23:09:46.956Z,4.50
2023-05-12T23:12:14.910Z,4.80
2023-05-12T23:14:43.093Z,4.70
2023-05-12T23:17:11.281Z,4.50
2023-05-12T23:19:40.306Z,4.60
2023-05-12T23:22:08.442Z,4.70
2023-05-12T23:24:36.708Z,4.10
2023-05-12T23:27:05.107Z,4.60
2023-05-12T23:29:34.608Z,4.20
2023-05-12T23:32:03.444Z,4.90
2023-05-12T23:34:31.559Z,5.20
2023-05-12T23:36:59.481Z,4.60
2023-05-12T23:39:27.491Z,4.60
2023-05-12T23:41:55.462Z,4.80
2023-05-12T23:44:25.315Z,4.40
2023-05-12T23:46:53.476Z,5.00
2023-05-12T23:49:21.715Z,5.10
2023-05-12T23:51:49.650Z,5.00
2023-05-12T23:54:17.545Z,4.70
2023-05-12T23:56:45.626Z,5.20
2023-05-12T23:59:13.604Z,4.90
